Time;durP1;ratioP1;P1;durP2;ratioP2;P2;SDS_P1;SDS_P2;PMS_P1;PMS_P2;Temp;Humidity;BMP_temperature;BMP_pressure;BME280_temperature;BME280_humidity;BME280_pressure;Samples;Min_cycle;Max_cycle;Signal;HPM_P1;HPM_P2
2022/08/06 00:02:30;;;;;;;2.88;2.25;;;18.10;99.90;;;-141.84;56.63;20860.66;5013773;28;20218;-66
2022/08/06 00:05:04;;;;;;;3.80;2.05;;;18.10;99.90;;;-141.84;55.92;20883.00;4994120;28;20199;-67
2022/08/06 00:07:34;;;;;;;2.00;1.80;;;18.00;99.90;;;-141.84;56.27;20842.34;4993040;28;20699;-67
2022/08/06 00:10:11;;;;;;;2.17;2.08;;;18.00;99.90;;;-141.84;56.37;20834.22;4993184;28;20235;-66
2022/08/06 00:12:40;;;;;;;2.38;2.03;;;17.90;99.90;;;-141.84;56.87;20824.06;4993668;28;20282;-65
2022/08/06 00:15:10;;;;;;;3.17;2.08;;;17.90;99.90;;;-141.84;56.65;20828.13;5003219;28;20308;-67
2022/08/06 00:17:43;;;;;;;5.05;2.58;;;17.90;99.90;;;-141.84;57.48;20797.63;5032508;28;20626;-67
2022/08/06 00:20:15;;;;;;;2.47;2.28;;;17.90;99.90;;;-141.84;57.92;20813.88;5013629;28;20302;-68
2022/08/06 00:22:59;;;;;;;3.20;2.05;;;17.80;99.90;;;-141.84;57.33;20805.75;5012927;28;20973;-67
2022/08/06 00:25:29;;;;;;;2.80;2.05;;;17.70;99.90;;;-141.84;56.43;20834.22;5012964;28;20230;-68
2022/08/06 00:28:17;;;;;;;3.25;1.70;;;17.70;99.90;;;-141.84;55.65;20858.59;4993254;28;20234;-67
2022/08/06 00:30:47;;;;;;;1.63;1.50;;;17.80;99.90;;;-141.84;55.65;20834.22;4993413;28;20233;-66
2022/08/06 00:33:17;;;;;;;1.80;1.20;;;17.70;99.90;;;-141.84;55.81;20795.59;4993133;28;20805;-67
2022/08/06 00:35:45;;;;;;;2.53;1.50;;;17.60;99.90;;;-141.84;55.22;20805.75;4993362;28;20242;-67
2022/08/06 00:38:14;;;;;;;3.30;1.40;;;17.60;99.90;;;-141.84;55.97;20773.22;4993911;28;20265;-67
2022/08/06 00:40:42;;;;;;;1.80;1.20;;;17.50;99.90;;;-141.84;55.80;20773.22;4997385;28;20219;-66
2022/08/06 00:43:26;;;;;;;3.30;1.67;;;17.50;99.90;;;-141.84;56.04;20748.84;5012645;28;20696;-67
2022/08/06 00:46:06;;;;;;;3.30;1.45;;;17.40;99.90;;;-141.84;56.60;20726.47;5012705;28;20226;-66
2022/08/06 00:48:45;;;;;;;1.50;1.40;;;17.30;99.90;;;-141.84;56.70;20718.34;5012525;28;20800;-67
2022/08/06 00:51:22;;;;;;;1.40;1.30;;;17.20;99.90;;;-141.84;57.00;20693.94;5012952;28;20254;-67
2022/08/06 00:53:50;;;;;;;1.83;1.40;;;17.10;99.90;;;-141.84;56.26;20761.03;5012402;28;20250;-66
2022/08/06 00:56:25;;;;;;;2.50;1.65;;;17.10;99.90;;;-141.84;56.38;20728.50;5012973;28;20677;-66
2022/08/06 00:58:57;;;;;;;1.80;1.40;;;17.10;99.90;;;-141.84;56.59;20724.44;5010446;28;20226;-66
2022/08/06 01:01:31;;;;;;;3.25;1.20;;;17.10;99.90;;;-141.84;56.00;20708.19;5011624;28;20267;-65
2022/08/06 01:04:20;;;;;;;2.30;1.30;;;17.10;99.90;;;-141.84;56.16;20732.56;5011115;28;20246;-66
2022/08/06 01:06:53;;;;;;;1.95;1.52;;;17.00;99.90;;;-141.84;56.49;20683.78;5012057;28;20226;-66
2022/08/06 01:09:26;;;;;;;1.63;1.30;;;16.90;99.90;;;-141.84;57.15;20683.78;5011970;28;20752;-67
2022/08/06 01:11:58;;;;;;;2.00;1.25;;;16.80;99.90;;;-141.84;57.08;20698.00;5012046;28;20230;-66
2022/08/06 01:14:30;;;;;;;1.20;1.10;;;16.80;99.90;;;-141.84;57.31;20653.28;5012728;28;20210;-67
2022/08/06 01:17:15;;;;;;;1.45;1.30;;;16.70;99.90;;;-141.84;57.66;20622.81;4993050;28;20283;-67
2022/08/06 01:20:17;;;;;;;2.45;1.13;;;16.70;99.90;;;-141.84;56.55;20661.44;4991935;28;20274;-67
2022/08/06 01:23:28;;;;;;;1.40;1.30;;;16.70;99.90;;;-141.84;57.12;20653.28;5026946;28;20230;-66
2022/08/06 01:26:40;;;;;;;3.53;1.30;;;16.70;99.90;;;-141.84;56.75;20665.50;5031712;28;20225;-66
2022/08/06 01:29:18;;;;;;;1.55;1.20;;;16.60;99.90;;;-141.84;56.95;20657.34;5010403;28;20228;-67
2022/08/06 01:31:54;;;;;;;1.10;1.00;;;16.50;99.90;;;-141.84;57.53;20622.81;5012013;28;20258;-66
2022/08/06 01:34:31;;;;;;;1.58;1.00;;;16.40;99.90;;;-141.84;56.34;20618.72;5011753;28;20253;-66
2022/08/06 01:37:09;;;;;;;2.47;1.00;;;16.40;99.90;;;-141.84;55.16;20677.69;5011843;28;20218;-66
2022/08/06 01:39:41;;;;;;;2.35;1.00;;;16.50;99.90;;;-141.84;55.05;20669.56;5020179;28;20255;-66
2022/08/06 01:42:33;;;;;;;1.73;1.00;;;16.50;99.90;;;-141.84;55.29;20641.09;5031716;28;20241;-65
2022/08/06 01:45:12;;;;;;;1.55;1.00;;;16.40;99.90;;;-141.84;55.28;20618.72;5031564;28;20221;-67
2022/08/06 01:47:46;;;;;;;5.25;1.13;;;16.40;99.90;;;-141.84;55.09;20630.94;5031507;28;20216;-66
2022/08/06 01:50:28;;;;;;;1.42;1.08;;;16.30;99.90;;;-141.84;54.86;20586.22;5031916;28;20646;-67
2022/08/06 01:52:59;;;;;;;1.50;0.90;;;16.30;99.90;;;-141.84;54.65;20643.13;5031236;28;20275;-65
2022/08/06 01:55:32;;;;;;;1.17;0.80;;;16.30;99.90;;;-141.84;55.23;20576.03;5031104;28;20529;-67
2022/08/06 01:58:27;;;;;;;1.05;0.90;;;16.20;99.90;;;-141.84;55.22;20569.94;5025439;28;20230;-67
2022/08/06 02:01:02;;;;;;;0.80;0.73;;;16.20;99.90;;;-141.84;55.44;20598.41;5031315;28;20230;-66
2022/08/06 02:03:36;;;;;;;2.65;1.10;;;16.20;99.90;;;-141.84;55.48;20594.34;5029552;28;20234;-67
2022/08/06 02:06:25;;;;;;;1.65;0.90;;;16.10;99.90;;;-141.84;55.45;20582.16;5031509;28;20232;-68
2022/08/06 02:09:02;;;;;;;1.95;0.90;;;16.20;99.90;;;-141.84;55.37;20582.16;5030932;28;20237;-67
2022/08/06 02:12:01;;;;;;;0.90;0.90;;;16.10;99.90;;;-141.84;56.17;20555.72;5031080;28;20186;-66
2022/08/06 02:14:40;;;;;;;2.08;0.77;;;16.00;99.90;;;-141.84;55.68;20594.34;5031418;28;20205;-66
2022/08/06 02:17:14;;;;;;;2.67;1.00;;;16.10;99.90;;;-141.84;56.02;20557.75;5031198;28;20213;-67
2022/08/06 02:19:50;;;;;;;1.88;0.80;;;16.00;99.90;;;-141.84;56.93;20545.56;5012400;28;20686;-67
2022/08/06 02:22:41;;;;;;;2.15;1.05;;;16.00;99.90;;;-141.84;57.32;20525.22;5010925;28;20731;-67
2022/08/06 02:25:14;;;;;;;1.47;0.90;;;15.90;99.90;;;-141.84;57.83;20567.91;5010920;28;20248;-66
2022/08/06 02:28:00;;;;;;;1.60;1.05;;;15.90;99.90;;;-141.84;58.10;20531.31;4991035;28;20716;-66
2022/08/06 02:30:35;;;;;;;1.75;1.27;;;16.00;99.90;;;-141.84;57.79;20578.09;4991189;28;20339;-66
2022/08/06 02:33:12;;;;;;;2.45;1.20;;;15.90;99.90;;;-141.84;57.74;20547.59;4994731;28;20238;-67
2022/08/06 02:35:51;;;;;;;2.07;1.23;;;16.00;99.90;;;-141.84;57.83;20565.88;5011027;28;20583;-66
2022/08/06 02:38:29;;;;;;;2.03;1.13;;;15.90;99.90;;;-141.84;59.24;20525.22;5011430;28;20276;-66
2022/08/06 02:41:03;;;;;;;1.42;1.27;;;15.90;99.90;;;-141.84;58.62;20541.50;5010668;28;20227;-66
2022/08/06 02:43:39;;;;;;;2.40;1.43;;;15.90;99.90;;;-141.84;59.67;20533.34;5010883;28;20288;-66
2022/08/06 02:46:15;;;;;;;2.05;1.30;;;15.80;99.90;;;-141.84;59.20;20531.31;5010615;28;20226;-65
2022/08/06 02:48:52;;;;;;;1.70;1.30;;;15.70;99.90;;;-141.84;60.59;20458.16;5010803;28;20284;-66
2022/08/06 02:51:30;;;;;;;2.83;1.10;;;15.70;99.90;;;-141.84;60.46;20511.00;5010766;28;20609;-66
2022/08/06 02:54:26;;;;;;;1.30;1.20;;;15.70;99.90;;;-141.84;59.74;20466.28;5010559;28;20238;-67
2022/08/06 02:57:04;;;;;;;2.33;1.20;;;15.60;99.90;;;-141.84;60.56;20452.06;5010864;28;20202;-67
2022/08/06 02:59:44;;;;;;;1.60;1.20;;;15.60;99.90;;;-141.84;59.97;20494.75;5011118;28;20191;-66
2022/08/06 03:02:26;;;;;;;1.85;1.45;;;15.50;99.90;;;-141.84;60.39;20472.38;5010799;28;20215;-69
2022/08/06 03:04:58;;;;;;;1.92;1.52;;;15.50;99.90;;;-141.84;60.44;20488.63;4990903;28;20592;-66
2022/08/06 03:07:33;;;;;;;1.58;1.33;;;15.50;99.90;;;-141.84;61.31;20427.66;4990962;28;20234;-67
2022/08/06 03:10:03;;;;;;;1.67;1.17;;;15.50;99.90;;;-141.84;60.73;20445.94;4990899;28;20306;-65
2022/08/06 03:12:42;;;;;;;2.97;1.30;;;15.40;99.90;;;-141.84;61.13;20460.19;4991106;28;20265;-68
2022/08/06 03:15:18;;;;;;;2.93;1.50;;;15.40;99.90;;;-141.84;61.15;20415.47;5007719;28;20221;-67
2022/08/06 03:18:07;;;;;;;1.30;1.20;;;15.30;99.90;;;-141.84;61.20;20423.59;5026634;28;20622;-67
2022/08/06 03:20:43;;;;;;;2.55;1.55;;;15.30;99.90;;;-141.84;61.19;20427.66;5011036;28;20207;-66
2022/08/06 03:23:14;;;;;;;1.93;1.10;;;15.30;99.90;;;-141.84;61.92;20403.25;5030849;28;20280;-67
2022/08/06 03:25:45;;;;;;;2.23;1.30;;;15.20;99.90;;;-141.84;61.59;20421.56;5027174;28;20226;-68
2022/08/06 03:28:17;;;;;;;1.85;1.33;;;15.20;99.90;;;-141.84;61.34;20429.69;5003837;28;20624;-66
2022/08/06 03:30:51;;;;;;;2.37;1.30;;;15.20;99.90;;;-141.84;61.62;20399.19;5010175;28;20317;-66
2022/08/06 03:33:24;;;;;;;1.75;1.20;;;15.20;99.90;;;-141.84;62.50;20384.97;5010111;28;20714;-66
2022/08/06 03:36:12;;;;;;;2.90;1.20;;;15.10;99.90;;;-141.84;61.92;20387.00;5010354;28;20296;-69
2022/08/06 03:38:51;;;;;;;2.13;1.30;;;15.10;99.90;;;-141.84;60.36;20462.22;5010519;28;20266;-68
2022/08/06 03:41:25;;;;;;;1.30;1.20;;;15.20;99.90;;;-141.84;61.52;20393.09;5010793;28;20282;-66
2022/08/06 03:44:07;;;;;;;1.77;1.10;;;15.10;99.90;;;-141.84;61.62;20413.44;5013550;28;20382;-67
2022/08/06 03:46:45;;;;;;;1.97;1.23;;;15.10;99.90;;;-141.84;61.93;20364.66;5013738;28;20222;-66
2022/08/06 03:49:24;;;;;;;1.73;1.30;;;15.00;99.90;;;-141.84;62.21;20397.16;5013709;28;20262;-66
2022/08/06 03:52:13;;;;;;;1.30;1.20;;;15.00;99.90;;;-141.84;61.20;20419.53;5013521;28;20718;-65
2022/08/06 03:54:48;;;;;;;3.67;1.70;;;15.00;99.90;;;-141.84;61.69;20382.94;5013671;28;20313;-67
2022/08/06 03:57:25;;;;;;;2.40;1.40;;;15.00;99.90;;;-141.84;61.77;20378.88;5027157;28;20225;-69
2022/08/06 04:00:00;;;;;;;2.15;0.98;;;15.00;99.90;;;-141.84;62.38;20397.16;5033392;28;20232;-67
2022/08/06 04:02:38;;;;;;;1.40;1.30;;;15.00;99.90;;;-141.84;62.74;20380.91;5033968;28;20220;-68
2022/08/06 04:05:19;;;;;;;3.70;1.20;;;15.00;99.90;;;-141.84;61.91;20374.81;5014055;28;20211;-67
2022/08/06 04:07:56;;;;;;;2.77;1.00;;;15.00;99.90;;;-141.84;62.00;20380.91;5013727;28;20702;-68
2022/08/06 04:10:28;;;;;;;2.13;1.27;;;15.00;99.90;;;-141.84;62.09;20370.75;5013451;28;20229;-67
2022/08/06 04:13:05;;;;;;;2.38;1.10;;;15.00;99.90;;;-141.84;62.27;20378.88;5013465;28;20230;-66
2022/08/06 04:15:56;;;;;;;1.70;1.23;;;15.10;99.90;;;-141.84;61.53;20399.19;5024421;28;20696;-67
2022/08/06 04:18:28;;;;;;;3.03;1.13;;;15.20;99.90;;;-141.84;60.87;20431.72;5033023;28;20249;-68
2022/08/06 04:21:01;;;;;;;1.67;1.20;;;15.20;99.90;;;-141.84;61.13;20439.84;5032811;28;20277;-67
2022/08/06 04:23:52;;;;;;;4.28;1.10;;;15.20;99.90;;;-141.84;61.13;20409.38;5032994;28;20202;-69
2022/08/06 04:26:28;;;;;;;3.35;1.42;;;15.20;99.90;;;-141.84;61.16;20435.78;5024012;28;20198;-65
2022/08/06 04:29:00;;;;;;;1.98;1.40;;;15.30;99.90;;;-141.84;60.30;20484.56;5013016;28;20234;-67
2022/08/06 04:31:32;;;;;;;2.05;1.13;;;15.40;99.90;;;-141.84;60.51;20472.38;5012796;28;20234;-65
2022/08/06 04:34:25;;;;;;;2.72;1.27;;;15.40;99.90;;;-141.84;60.49;20450.03;5013145;28;20230;-67
2022/08/06 04:36:57;;;;;;;1.13;1.00;;;15.50;99.90;;;-141.84;59.62;20492.72;5013162;28;20230;-66
2022/08/06 04:39:27;;;;;;;3.17;1.38;;;15.50;99.90;;;-141.84;59.69;20484.56;5013517;28;20223;-66
2022/08/06 04:42:18;;;;;;;1.77;1.13;;;15.50;99.90;;;-141.84;60.05;20433.75;5013039;28;20222;-66
2022/08/06 04:44:47;;;;;;;2.10;1.15;;;15.50;99.90;;;-141.84;60.01;20468.31;5013222;28;20222;-67
2022/08/06 04:47:31;;;;;;;1.77;1.23;;;15.60;99.90;;;-141.84;59.76;20474.41;5013183;28;20191;-66
2022/08/06 04:50:10;;;;;;;2.43;1.37;;;15.70;99.90;;;-141.84;59.53;20494.75;5012812;28;20293;-65
2022/08/06 04:52:40;;;;;;;1.67;1.30;;;15.70;99.90;;;-141.84;58.96;20511.00;5012625;28;20310;-67
2022/08/06 04:55:20;;;;;;;1.52;1.10;;;15.80;99.90;;;-141.84;58.82;20525.22;5012010;28;20230;-66
2022/08/06 04:57:53;;;;;;;4.18;1.35;;;15.80;99.90;;;-141.84;58.37;20543.53;5012453;28;20941;-65
2022/08/06 05:00:31;;;;;;;4.70;1.95;;;15.80;99.90;;;-141.84;58.09;20549.63;5012869;28;20289;-66
2022/08/06 05:03:01;;;;;;;2.17;1.27;;;15.80;99.90;;;-141.84;58.25;20582.16;5015695;28;20225;-67
2022/08/06 05:05:34;;;;;;;2.47;1.38;;;15.90;99.90;;;-141.84;57.53;20592.31;5032950;28;20689;-67
2022/08/06 05:08:09;;;;;;;1.75;1.52;;;16.00;99.90;;;-141.84;56.74;20647.19;5012577;28;20227;-66
2022/08/06 05:10:48;;;;;;;3.40;1.42;;;16.10;99.90;;;-141.84;56.74;20675.66;5029390;28;20225;-66
2022/08/06 05:13:21;;;;;;;2.13;1.40;;;16.30;99.90;;;-141.84;56.09;20643.13;5032086;28;20316;-67
2022/08/06 05:16:10;;;;;;;4.32;1.60;;;16.50;99.90;;;-141.84;55.33;20728.50;5031765;28;20284;-67
2022/08/06 05:18:45;;;;;;;1.70;1.52;;;16.60;99.90;;;-141.84;54.49;20750.88;5031776;28;20840;-66
2022/08/06 05:21:38;;;;;;;2.15;1.33;;;16.80;99.90;;;-141.84;52.40;20862.69;5031729;28;20232;-67
2022/08/06 05:24:28;;;;;;;2.80;1.52;;;17.20;99.90;;;-141.84;53.08;20834.22;5012739;28;20265;-65
2022/08/06 05:27:18;;;;;;;1.80;1.42;;;17.30;99.90;;;-141.84;54.02;20828.13;5026505;28;20221;-66
2022/08/06 05:29:46;;;;;;;2.55;1.48;;;17.40;99.90;;;-141.84;54.24;20783.41;5032072;28;20264;-66
2022/08/06 05:32:19;;;;;;;3.10;1.85;;;17.30;99.90;;;-141.84;54.68;20754.94;5032375;28;20202;-66
2022/08/06 05:34:53;;;;;;;3.67;1.42;;;17.20;99.90;;;-141.84;55.09;20748.84;5031719;28;20317;-66
2022/08/06 05:37:21;;;;;;;1.65;1.50;;;17.00;99.90;;;-141.84;55.79;20691.91;5031716;28;20762;-67
2022/08/06 05:40:10;;;;;;;3.53;1.45;;;16.90;99.90;;;-141.84;55.47;20712.25;5031766;28;20234;-66
2022/08/06 05:42:40;;;;;;;4.30;1.65;;;16.80;99.90;;;-141.84;55.71;20691.91;5031644;28;20284;-66
2022/08/06 05:45:25;;;;;;;2.53;1.40;;;16.70;99.90;;;-141.84;55.04;20728.50;5031377;28;20727;-67
2022/08/06 05:47:56;;;;;;;1.70;1.30;;;16.70;99.90;;;-141.84;54.83;20740.69;5031546;28;20205;-67
2022/08/06 05:50:34;;;;;;;2.33;1.40;;;16.80;99.90;;;-141.84;54.86;20754.94;5032117;28;20210;-67
2022/08/06 05:53:09;;;;;;;1.33;1.20;;;17.00;99.90;;;-141.84;54.25;20771.19;5031693;28;20218;-66
2022/08/06 05:55:46;;;;;;;5.43;1.88;;;17.30;99.90;;;-141.84;53.22;20834.22;5031351;28;20760;-66
2022/08/06 05:58:25;;;;;;;4.38;1.60;;;17.50;99.90;;;-141.84;52.62;20838.28;5031103;28;20238;-66
2022/08/06 06:01:01;;;;;;;1.52;1.23;;;17.50;99.90;;;-141.84;52.46;20905.38;5031353;28;20354;-66
2022/08/06 06:03:30;;;;;;;2.63;1.42;;;17.60;99.90;;;-141.84;52.48;20858.59;5030965;28;20222;-65
2022/08/06 06:06:03;;;;;;;1.00;1.00;;;17.70;99.90;;;-141.84;52.69;20866.75;5031317;28;20595;-66
2022/08/06 06:08:45;;;;;;;1.65;1.10;;;18.00;99.90;;;-141.84;51.50;20935.88;5031336;28;20242;-67
2022/08/06 06:11:27;;;;;;;2.25;1.00;;;18.20;99.90;;;-141.84;51.34;20958.22;5031986;28;20265;-67
2022/08/06 06:14:36;;;;;;;2.20;1.40;;;18.30;99.90;;;-141.84;51.09;20960.25;5010949;28;20709;-66
2022/08/06 06:17:48;;;;;;;1.20;1.10;;;18.40;99.90;;;-141.84;50.43;20950.09;4992916;28;20215;-66
2022/08/06 06:20:20;;;;;;;2.28;1.10;;;18.50;99.90;;;-141.84;50.26;21000.91;5011761;28;20293;-66
2022/08/06 06:23:18;;;;;;;1.15;0.93;;;18.50;99.90;;;-141.84;50.30;21017.19;5011364;28;20241;-66
2022/08/06 06:26:02;;;;;;;4.95;1.98;;;18.50;99.90;;;-141.84;50.13;21019.22;5012844;28;20252;-66
2022/08/06 06:28:40;;;;;;;1.73;1.00;;;18.60;99.90;;;-141.84;50.57;20972.47;5031409;28;20309;-66
2022/08/06 06:31:33;;;;;;;2.60;1.40;;;18.60;99.90;;;-141.84;50.17;20986.69;5031871;28;20229;-66
2022/08/06 06:34:30;;;;;;;1.83;1.05;;;18.50;99.90;;;-141.84;49.87;21019.22;5031442;28;20237;-67
2022/08/06 06:37:15;;;;;;;1.88;0.95;;;18.60;99.90;;;-141.84;49.91;21106.63;5031856;28;20249;-66
2022/08/06 06:40:03;;;;;;;1.73;0.90;;;18.70;99.90;;;-141.84;49.51;21021.25;5031704;28;20288;-66
2022/08/06 06:42:52;;;;;;;5.15;1.00;;;18.60;99.90;;;-141.84;49.10;21049.72;5031514;28;20369;-66
2022/08/06 06:45:33;;;;;;;1.58;0.80;;;18.70;99.90;;;-141.84;49.38;20962.28;5031670;28;20221;-65
2022/08/06 06:48:46;;;;;;;1.83;1.00;;;18.60;99.90;;;-141.84;50.09;20923.66;5031454;28;20228;-67
2022/08/06 06:51:34;;;;;;;1.98;0.80;;;18.50;99.90;;;-141.84;50.62;20927.72;5024704;28;20229;-67
2022/08/06 06:54:28;;;;;;;1.90;0.93;;;18.20;99.90;;;-141.84;50.80;20895.19;5031461;28;20221;-66
2022/08/06 06:57:09;;;;;;;3.75;0.98;;;18.00;99.90;;;-141.84;50.92;20917.56;5031296;28;20228;-66
2022/08/06 06:59:44;;;;;;;1.75;1.00;;;17.90;99.90;;;-141.84;51.21;20899.28;5031010;28;20285;-67
2022/08/06 07:02:40;;;;;;;1.98;0.95;;;17.90;99.90;;;-141.84;51.24;20895.19;5031766;28;20205;-66
2022/08/06 07:05:13;;;;;;;3.40;1.10;;;17.90;99.90;;;-141.84;50.87;20929.75;5010843;28;20217;-67
2022/08/06 07:07:47;;;;;;;2.28;0.90;;;18.00;99.90;;;-141.84;50.97;20903.34;5028854;28;20225;-67
2022/08/06 07:10:20;;;;;;;2.25;0.95;;;18.00;99.90;;;-141.84;50.45;20927.72;5031145;28;20233;-66
2022/08/06 07:12:50;;;;;;;2.45;0.75;;;18.10;99.90;;;-141.84;50.87;20911.47;5031252;28;20304;-66
2022/08/06 07:15:24;;;;;;;2.20;0.82;;;18.00;99.90;;;-141.84;51.47;20817.94;5037884;28;20251;-66
2022/08/06 07:17:54;;;;;;;2.25;0.90;;;17.90;99.90;;;-141.84;51.38;20876.91;5052358;28;20236;-66
2022/08/06 07:20:40;;;;;;;3.28;0.95;;;17.90;99.90;;;-141.84;50.88;20923.66;5055065;28;20213;-66
2022/08/06 07:23:10;;;;;;;1.08;0.88;;;18.00;99.90;;;-141.84;51.05;20921.63;5035489;28;20210;-66
2022/08/06 07:26:01;;;;;;;1.85;0.73;;;18.10;99.90;;;-141.84;50.12;20996.84;5050510;28;20237;-67
2022/08/06 07:28:31;;;;;;;1.63;0.90;;;18.10;99.90;;;-141.84;50.32;20923.66;5019034;28;20642;-66
2022/08/06 07:31:05;;;;;;;2.40;0.98;;;18.20;99.90;;;-141.84;50.86;20919.59;5014911;28;20233;-66
2022/08/06 07:33:40;;;;;;;2.10;0.68;;;18.10;99.90;;;-141.84;50.33;20960.25;5015139;28;20233;-66
2022/08/06 07:36:36;;;;;;;1.48;0.82;;;18.10;99.90;;;-141.84;50.00;20927.72;5015333;28;20226;-66
2022/08/06 07:39:09;;;;;;;5.05;1.10;;;18.10;99.90;;;-141.84;50.02;20939.94;5015238;28;20261;-66
2022/08/06 07:41:44;;;;;;;1.13;0.80;;;18.00;99.90;;;-141.84;50.44;20960.25;5014690;28;20187;-66
2022/08/06 07:44:37;;;;;;;1.60;0.85;;;18.10;99.90;;;-141.84;48.08;20988.72;5012513;28;20198;-65
2022/08/06 07:47:31;;;;;;;1.17;0.80;;;18.10;99.90;;;-141.84;48.69;20911.47;5034755;28;20264;-66
2022/08/06 07:50:21;;;;;;;1.83;0.88;;;18.20;99.90;;;-141.84;48.91;20984.66;5014741;28;20228;-68
2022/08/06 07:52:54;;;;;;;2.65;1.27;;;18.30;99.90;;;-141.84;47.72;21017.19;5032568;28;20225;-66
2022/08/06 07:55:25;;;;;;;1.52;0.70;;;18.40;99.90;;;-141.84;47.31;20980.59;5034052;28;20232;-67
2022/08/06 07:58:10;;;;;;;1.88;0.75;;;18.50;99.90;;;-141.84;46.98;21021.25;5014695;28;20235;-67
2022/08/06 08:00:44;;;;;;;3.67;0.80;;;18.50;99.90;;;-141.84;47.50;21031.41;5014405;28;20288;-67
2022/08/06 08:06:27;;;;;;;3.70;0.75;;;18.60;99.90;;;-141.84;46.65;20976.53;5034034;28;20222;-67
2022/08/06 08:09:07;;;;;;;1.33;0.80;;;18.50;99.90;;;-141.84;46.16;21055.81;5034291;28;20715;-67
2022/08/06 08:11:41;;;;;;;2.58;1.40;;;18.50;99.90;;;-141.84;47.10;21039.53;5033898;28;20865;-66
2022/08/06 08:14:31;;;;;;;1.25;0.70;;;18.70;99.90;;;-141.84;46.47;21088.34;5034590;28;20194;-67
2022/08/06 08:16:59;;;;;;;1.25;0.70;;;18.70;99.90;;;-141.84;45.87;21061.91;5013957;28;20231;-67
2022/08/06 08:19:31;;;;;;;2.40;0.90;;;18.70;99.90;;;-141.84;46.16;21100.53;5012750;28;20747;-68
2022/08/06 08:22:07;;;;;;;1.42;0.80;;;18.80;99.90;;;-141.84;46.64;21065.97;5013203;28;20317;-67
2022/08/06 08:24:39;;;;;;;2.38;1.25;;;18.80;99.90;;;-141.84;46.73;21063.94;5013397;28;20309;-66
2022/08/06 08:27:10;;;;;;;4.43;0.93;;;18.80;99.90;;;-141.84;46.01;21129.00;5025719;28;20252;-67
2022/08/06 08:29:51;;;;;;;0.80;0.70;;;18.90;99.90;;;-141.84;44.55;21153.41;5032674;28;20194;-67
2022/08/06 08:32:24;;;;;;;3.35;0.80;;;18.90;99.90;;;-141.84;44.58;21094.44;5034433;28;20544;-67
2022/08/06 08:34:53;;;;;;;1.40;0.60;;;18.90;99.90;;;-141.84;43.13;21135.09;5032530;28;20642;-66
2022/08/06 08:37:25;;;;;;;0.77;0.57;;;18.90;99.90;;;-141.84;44.24;21114.75;5032817;28;20229;-67
2022/08/06 08:39:54;;;;;;;2.67;0.98;;;18.90;99.90;;;-141.84;46.15;21141.19;5032631;28;20226;-67
2022/08/06 08:42:35;;;;;;;3.08;0.80;;;18.90;99.90;;;-141.84;46.28;21147.28;5032576;28;20890;-67
2022/08/06 08:45:07;;;;;;;5.55;0.88;;;18.90;99.90;;;-141.84;45.56;21106.63;5032435;28;20230;-67
2022/08/06 08:47:46;;;;;;;1.55;0.73;;;19.00;99.90;;;-141.84;45.28;21143.22;5032848;28;20186;-68
2022/08/06 08:50:29;;;;;;;3.75;0.90;;;19.10;99.90;;;-141.84;44.12;21145.25;5031215;28;20701;-67
2022/08/06 08:53:03;;;;;;;2.05;0.82;;;19.10;99.90;;;-141.84;45.09;21153.41;5032125;28;20312;-68
2022/08/06 08:55:34;;;;;;;1.33;0.95;;;19.00;99.90;;;-141.84;44.76;21169.66;5028964;28;20225;-68
2022/08/06 08:58:24;;;;;;;2.03;0.93;;;19.10;99.90;;;-141.84;44.31;21220.47;5024675;28;20720;-66
2022/08/06 09:01:11;;;;;;;1.08;0.88;;;19.40;99.90;;;-141.84;43.78;21234.72;5031722;28;20218;-66
2022/08/06 09:04:03;;;;;;;1.65;0.60;;;19.40;99.90;;;-141.84;43.54;21192.03;5029576;28;20248;-66
2022/08/06 09:06:32;;;;;;;2.53;0.80;;;19.40;99.90;;;-141.84;44.16;21224.56;5030964;28;20318;-67
2022/08/06 09:09:08;;;;;;;2.65;1.10;;;19.50;99.90;;;-141.84;44.21;21248.94;5028320;28;20236;-67
2022/08/06 09:11:45;;;;;;;1.15;0.80;;;19.50;99.90;;;-141.84;44.43;21301.81;5031479;28;20206;-67
2022/08/06 09:14:35;;;;;;;1.13;0.80;;;19.70;99.90;;;-141.84;43.37;21309.94;5018896;28;20198;-68
2022/08/06 09:17:07;;;;;;;1.35;0.70;;;19.80;99.90;;;-141.84;42.98;21324.19;5021718;28;20223;-67
2022/08/06 09:19:40;;;;;;;2.17;0.80;;;19.80;99.90;;;-141.84;41.20;21350.59;5010340;28;20244;-66
2022/08/06 09:22:09;;;;;;;0.85;0.60;;;19.90;99.90;;;-141.84;41.60;21324.19;5010776;28;20305;-67
2022/08/06 09:24:40;;;;;;;0.93;0.80;;;20.00;99.90;;;-141.84;42.09;21336.38;5018632;28;20260;-65
2022/08/06 09:27:11;;;;;;;1.23;0.68;;;20.00;99.90;;;-141.84;41.38;21454.28;5023737;28;20736;-66
2022/08/06 09:30:02;;;;;;;4.93;0.57;;;20.30;99.90;;;-141.84;40.93;21452.25;5011736;28;20479;-68
2022/08/06 09:32:50;;;;;;;1.02;0.55;;;20.50;99.90;;;-141.84;39.89;21513.25;5007519;28;20663;-64
2022/08/06 09:35:26;;;;;;;1.20;0.50;;;20.70;99.90;;;-141.84;39.61;21413.63;5013076;28;20195;-66
2022/08/06 09:38:14;;;;;;;0.93;0.50;;;20.50;99.90;;;-141.84;39.23;21409.56;5022885;28;20301;-65
2022/08/06 09:41:04;;;;;;;1.35;0.50;;;20.30;99.90;;;-141.84;39.10;21431.94;5026549;28;20300;-66
2022/08/06 09:43:36;;;;;;;1.08;0.50;;;20.20;99.90;;;-141.84;39.07;21436.00;5031502;28;20232;-65
2022/08/06 09:46:39;;;;;;;1.35;0.73;;;20.30;99.90;;;-141.84;37.20;21501.06;5019254;28;20229;-64
2022/08/06 09:49:09;;;;;;;1.40;0.70;;;20.50;99.90;;;-141.84;38.13;21476.66;5031122;28;20229;-65
2022/08/06 09:52:18;;;;;;;1.58;0.43;;;20.60;99.90;;;-141.84;38.39;21464.47;5030936;28;20257;-64
2022/08/06 09:54:49;;;;;;;1.77;0.60;;;20.70;99.90;;;-141.84;38.35;21592.56;5031430;28;20228;-66
2022/08/06 09:57:24;;;;;;;1.75;0.60;;;20.80;99.90;;;-141.84;37.55;21533.59;5031149;28;20225;-65
2022/08/06 10:00:08;;;;;;;1.20;0.50;;;20.80;99.90;;;-141.84;36.98;21497.00;5031447;28;20229;-66
2022/08/06 10:02:43;;;;;;;1.13;0.50;;;20.60;99.90;;;-141.84;36.21;21547.81;5028846;28;20277;-66
2022/08/06 10:05:20;;;;;;;1.00;0.70;;;20.60;99.90;;;-141.84;36.04;21582.38;5012175;28;20222;-65
2022/08/06 10:08:05;;;;;;;1.30;0.60;;;20.80;99.90;;;-141.84;36.51;21625.09;5010867;28;20641;-60
2022/08/06 10:10:47;;;;;;;0.70;0.40;;;21.00;99.90;;;-141.84;36.83;21673.88;5011583;28;20246;-62
2022/08/06 10:13:21;;;;;;;1.52;0.55;;;21.20;99.90;;;-141.84;37.09;21582.38;5011230;28;20300;-61
2022/08/06 10:15:54;;;;;;;0.82;0.40;;;21.20;99.90;;;-141.84;36.22;21505.13;5032877;28;20609;-61
2022/08/06 10:18:36;;;;;;;0.63;0.35;;;20.90;99.90;;;-141.84;36.13;21535.63;5050721;28;20247;-61
2022/08/06 10:21:27;;;;;;;0.60;0.40;;;20.90;99.90;;;-141.84;35.87;21614.94;5050609;28;20599;-67
2022/08/06 10:24:11;;;;;;;1.35;0.60;;;20.90;99.90;;;-141.84;35.85;21651.53;5051002;28;20221;-66
2022/08/06 10:26:42;;;;;;;1.33;0.75;;;21.10;99.90;;;-141.84;35.76;21651.53;5041681;28;20274;-66
2022/08/06 10:29:15;;;;;;;1.27;0.60;;;21.30;99.90;;;-141.84;36.44;21696.25;5031210;28;20187;-65
2022/08/06 10:31:47;;;;;;;0.82;0.43;;;21.30;99.90;;;-141.84;36.06;21797.94;5030714;28;20260;-65
2022/08/06 10:34:26;;;;;;;1.50;0.68;;;21.50;99.90;;;-141.84;36.12;21826.41;5030668;28;20724;-65
2022/08/06 10:37:07;;;;;;;2.65;0.73;;;21.80;99.90;;;-141.84;35.62;21899.59;5030367;28;20295;-66
2022/08/06 10:40:00;;;;;;;1.75;0.70;;;22.00;99.90;;;-141.84;36.31;21877.22;5030602;28;20719;-66
2022/08/06 10:42:38;;;;;;;0.70;0.57;;;22.10;99.90;;;-141.84;36.39;21791.81;5030705;28;20379;-66
2022/08/06 10:45:11;;;;;;;1.30;0.60;;;22.00;99.90;;;-141.84;35.54;21736.94;5029048;28;20272;-66
2022/08/06 10:47:47;;;;;;;1.40;0.50;;;21.80;99.90;;;-141.84;36.25;21627.13;5031082;28;20248;-66
2022/08/06 10:50:36;;;;;;;0.80;0.40;;;21.40;99.90;;;-141.84;36.76;21574.25;5031304;28;20210;-66
2022/08/06 10:53:23;;;;;;;0.73;0.65;;;21.10;99.90;;;-141.84;36.49;21560.03;5010460;28;20282;-67
2022/08/06 10:56:14;;;;;;;0.85;0.60;;;21.00;99.90;;;-141.84;36.03;21623.06;5030642;28;20233;-65
2022/08/06 10:58:49;;;;;;;3.20;0.50;;;21.00;99.90;;;-141.84;35.33;21643.38;5030836;28;20235;-66